Zeybe — TCMG4 — position and weather

sailwx.info

Track history (hours):
 
Tides and Currents Weather Stations Pressure Air Temp Water Temp Dewpoint Dewpoint Depression Visibility Wind Speed Wind Dir Waves Ship Positions

Zeybe

Last reported at 2018-Jan-07 15:54 UTC. Time now 2018-Jan-18 19:54 UTC.
Position N 36°39' E 013°58'.
Warning: this ship's position is 11 days out of date.

Length 70 m; draft 5 m.

Type: Ship. MMSI: 271042650.

Date/timePositionNaut miles runAvg speedWind from/ knotsBaromVisibWave heightAir tempDewpointWater temp
2018-Jan-07 15:54N 36°39' E 013°58'3 7.0
2018-Jan-07 15:24N 36°37' E 014°02'3 7.1
2018-Jan-07 14:59N 36°36' E 014°05'5 7.0
2018-Jan-07 14:19N 36°34' E 014°11'2 6.9
2018-Jan-07 13:58N 36°33' E 014°13'3 6.9
2018-Jan-07 13:30N 36°32' E 014°17'3 6.5
2018-Jan-07 13:00N 36°31' E 014°21'3 6.9
2018-Jan-07 12:30N 36°30' E 014°25'3 6.7
2018-Jan-07 12:00N 36°29' E 014°29'3 6.7
2018-Jan-07 11:30N 36°28' E 014°33'3 7.1
2018-Jan-07 11:00N 36°27' E 014°37'4 7.2
2018-Jan-07 10:29N 36°26' E 014°42'92 7.4
2018-Jan-06 22:07N 36°17' E 016°35'  
2018-Jan-02 15:02N 37°24' E 023°56'1 7.6
2018-Jan-02 14:56N 37°25' E 023°57'3 7.5
2018-Jan-02 14:29N 37°27' E 024°00'5 7.8
2018-Jan-02 13:52N 37°31' E 024°03'3 8.0
2018-Jan-02 13:30N 37°34' E 024°05'4 8.4
2018-Jan-02 13:00N 37°37' E 024°08'4 8.1
2018-Jan-02 12:30N 37°41' E 024°11'4 7.8
2018-Jan-02 11:58N 37°44' E 024°14'4 7.9
2018-Jan-02 11:30N 37°46' E 024°18'4 8.0
2018-Jan-02 11:00N 37°49' E 024°22'4 7.9
2018-Jan-02 10:30N 37°51' E 024°26'4 7.6
2018-Jan-02 09:56N 37°53' E 024°30'4 7.6
2018-Jan-02 09:24N 37°56' E 024°34'70 7.2
2018-Jan-01 23:33N 38°58' E 025°17'2 5.8
2018-Jan-01 23:12N 38°60' E 025°18'1 5.7
2018-Jan-01 23:00N 39°01' E 025°19'  
Track history (hours):
 
Tides and Currents Weather Stations Pressure Air Temp Water Temp Dewpoint Dewpoint Depression Visibility Wind Speed Wind Dir Waves Ship Positions

Zeybe

Last reported at 2018-Jan-07 15:54 UTC. Time now 2018-Jan-18 19:54 UTC.
Position N 36°39' E 013°58'.
Warning: this ship's position is 11 days out of date.

Length 70 m; draft 5 m.

Type: Ship. MMSI: 271042650.

Date/timePositionNaut miles runAvg speedWind from/ knotsBaromVisibWave heightAir tempDewpointWater temp
2018-Jan-07 15:54N 36°39' E 013°58'3 7.0
2018-Jan-07 15:24N 36°37' E 014°02'3 7.1
2018-Jan-07 14:59N 36°36' E 014°05'5 7.0
2018-Jan-07 14:19N 36°34' E 014°11'2 6.9
2018-Jan-07 13:58N 36°33' E 014°13'3 6.9
2018-Jan-07 13:30N 36°32' E 014°17'3 6.5
2018-Jan-07 13:00N 36°31' E 014°21'3 6.9
2018-Jan-07 12:30N 36°30' E 014°25'3 6.7
2018-Jan-07 12:00N 36°29' E 014°29'3 6.7
2018-Jan-07 11:30N 36°28' E 014°33'3 7.1
2018-Jan-07 11:00N 36°27' E 014°37'4 7.2
2018-Jan-07 10:29N 36°26' E 014°42'92 7.4
2018-Jan-06 22:07N 36°17' E 016°35'  
2018-Jan-02 15:02N 37°24' E 023°56'1 7.6
2018-Jan-02 14:56N 37°25' E 023°57'3 7.5
2018-Jan-02 14:29N 37°27' E 024°00'5 7.8
2018-Jan-02 13:52N 37°31' E 024°03'3 8.0
2018-Jan-02 13:30N 37°34' E 024°05'4 8.4
2018-Jan-02 13:00N 37°37' E 024°08'4 8.1
2018-Jan-02 12:30N 37°41' E 024°11'4 7.8
2018-Jan-02 11:58N 37°44' E 024°14'4 7.9
2018-Jan-02 11:30N 37°46' E 024°18'4 8.0
2018-Jan-02 11:00N 37°49' E 024°22'4 7.9
2018-Jan-02 10:30N 37°51' E 024°26'4 7.6
2018-Jan-02 09:56N 37°53' E 024°30'4 7.6
2018-Jan-02 09:24N 37°56' E 024°34'70 7.2
2018-Jan-01 23:33N 38°58' E 025°17'2 5.8
2018-Jan-01 23:12N 38°60' E 025°18'1 5.7
2018-Jan-01 23:00N 39°01' E 025°19'  

Dump ship's entire track history